sensor_id;sensor_type;location;lat;lon;timestamp;P1;durP1;ratioP1;P2;durP2;ratioP2
13386;SDS011;6763;48.524;9.044;2023-12-07T00:01:25;5.63;;;3.63;;
13386;SDS011;6763;48.524;9.044;2023-12-07T00:03:50;6.60;;;3.77;;
13386;SDS011;6763;48.524;9.044;2023-12-07T00:06:15;8.07;;;3.93;;
13386;SDS011;6763;48.524;9.044;2023-12-07T00:08:40;5.73;;;3.73;;
13386;SDS011;6763;48.524;9.044;2023-12-07T00:11:06;6.40;;;3.70;;
13386;SDS011;6763;48.524;9.044;2023-12-07T00:13:31;8.20;;;3.83;;
13386;SDS011;6763;48.524;9.044;2023-12-07T00:15:56;5.57;;;3.43;;
13386;SDS011;6763;48.524;9.044;2023-12-07T00:18:21;7.77;;;4.10;;
13386;SDS011;6763;48.524;9.044;2023-12-07T00:20:47;7.63;;;4.13;;
13386;SDS011;6763;48.524;9.044;2023-12-07T00:23:12;5.00;;;3.60;;
13386;SDS011;6763;48.524;9.044;2023-12-07T00:25:37;6.67;;;4.37;;
13386;SDS011;6763;48.524;9.044;2023-12-07T00:28:03;5.77;;;3.83;;
13386;SDS011;6763;48.524;9.044;2023-12-07T00:30:28;6.77;;;3.83;;
13386;SDS011;6763;48.524;9.044;2023-12-07T00:32:54;9.30;;;4.47;;
13386;SDS011;6763;48.524;9.044;2023-12-07T00:35:19;8.10;;;4.67;;
13386;SDS011;6763;48.524;9.044;2023-12-07T00:37:47;8.43;;;4.10;;
13386;SDS011;6763;48.524;9.044;2023-12-07T00:40:12;8.33;;;4.50;;
13386;SDS011;6763;48.524;9.044;2023-12-07T00:42:37;8.00;;;4.63;;
13386;SDS011;6763;48.524;9.044;2023-12-07T00:45:03;7.07;;;3.90;;
13386;SDS011;6763;48.524;9.044;2023-12-07T00:47:29;6.37;;;4.47;;
13386;SDS011;6763;48.524;9.044;2023-12-07T00:49:54;8.40;;;4.50;;
13386;SDS011;6763;48.524;9.044;2023-12-07T00:52:19;6.30;;;4.07;;
13386;SDS011;6763;48.524;9.044;2023-12-07T00:54:44;7.93;;;4.53;;
13386;SDS011;6763;48.524;9.044;2023-12-07T00:57:10;6.00;;;4.50;;
13386;SDS011;6763;48.524;9.044;2023-12-07T00:59:35;7.40;;;4.57;;
13386;SDS011;6763;48.524;9.044;2023-12-07T01:02:01;7.60;;;4.20;;
13386;SDS011;6763;48.524;9.044;2023-12-07T01:04:28;6.60;;;4.23;;
13386;SDS011;6763;48.524;9.044;2023-12-07T01:06:53;7.57;;;4.80;;
13386;SDS011;6763;48.524;9.044;2023-12-07T01:09:19;8.57;;;4.57;;
13386;SDS011;6763;48.524;9.044;2023-12-07T01:11:44;7.13;;;4.57;;
13386;SDS011;6763;48.524;9.044;2023-12-07T01:14:10;7.07;;;4.33;;
13386;SDS011;6763;48.524;9.044;2023-12-07T01:16:36;6.43;;;4.00;;
13386;SDS011;6763;48.524;9.044;2023-12-07T01:19:01;5.77;;;4.10;;
13386;SDS011;6763;48.524;9.044;2023-12-07T01:21:27;5.20;;;3.53;;
13386;SDS011;6763;48.524;9.044;2023-12-07T01:23:52;6.37;;;4.10;;
13386;SDS011;6763;48.524;9.044;2023-12-07T01:26:17;6.90;;;4.10;;
13386;SDS011;6763;48.524;9.044;2023-12-07T01:28:43;8.20;;;5.00;;
13386;SDS011;6763;48.524;9.044;2023-12-07T01:31:08;7.20;;;4.13;;
13386;SDS011;6763;48.524;9.044;2023-12-07T01:33:33;7.40;;;4.63;;
13386;SDS011;6763;48.524;9.044;2023-12-07T01:35:59;6.87;;;4.03;;
13386;SDS011;6763;48.524;9.044;2023-12-07T01:38:24;6.30;;;4.43;;
13386;SDS011;6763;48.524;9.044;2023-12-07T01:40:49;8.90;;;5.00;;
13386;SDS011;6763;48.524;9.044;2023-12-07T01:43:15;8.10;;;4.93;;
13386;SDS011;6763;48.524;9.044;2023-12-07T01:45:40;6.43;;;4.13;;
13386;SDS011;6763;48.524;9.044;2023-12-07T01:48:05;7.97;;;4.63;;
13386;SDS011;6763;48.524;9.044;2023-12-07T01:50:31;8.63;;;4.90;;
13386;SDS011;6763;48.524;9.044;2023-12-07T01:52:59;9.90;;;4.90;;
13386;SDS011;6763;48.524;9.044;2023-12-07T01:55:27;8.87;;;4.90;;
13386;SDS011;6763;48.524;9.044;2023-12-07T01:57:53;6.87;;;3.73;;
13386;SDS011;6763;48.524;9.044;2023-12-07T02:00:19;6.87;;;4.07;;
13386;SDS011;6763;48.524;9.044;2023-12-07T02:02:45;7.67;;;4.13;;
13386;SDS011;6763;48.524;9.044;2023-12-07T02:05:12;9.33;;;4.43;;
13386;SDS011;6763;48.524;9.044;2023-12-07T02:07:39;7.17;;;4.47;;
13386;SDS011;6763;48.524;9.044;2023-12-07T02:10:06;6.90;;;4.23;;
13386;SDS011;6763;48.524;9.044;2023-12-07T02:12:32;7.53;;;4.47;;
13386;SDS011;6763;48.524;9.044;2023-12-07T02:14:57;4.73;;;3.43;;
13386;SDS011;6763;48.524;9.044;2023-12-07T02:20:21;7.67;;;4.57;;
13386;SDS011;6763;48.524;9.044;2023-12-07T02:23:07;6.20;;;4.07;;
13386;SDS011;6763;48.524;9.044;2023-12-07T02:28:11;6.30;;;4.37;;
13386;SDS011;6763;48.524;9.044;2023-12-07T02:30:36;7.73;;;4.87;;
13386;SDS011;6763;48.524;9.044;2023-12-07T02:33:02;7.57;;;3.93;;
13386;SDS011;6763;48.524;9.044;2023-12-07T02:35:27;9.00;;;4.30;;
13386;SDS011;6763;48.524;9.044;2023-12-07T02:37:53;6.53;;;4.00;;
13386;SDS011;6763;48.524;9.044;2023-12-07T02:40:24;5.40;;;3.50;;
13386;SDS011;6763;48.524;9.044;2023-12-07T02:42:51;6.87;;;4.33;;
13386;SDS011;6763;48.524;9.044;2023-12-07T02:45:21;6.17;;;3.60;;
13386;SDS011;6763;48.524;9.044;2023-12-07T02:47:46;7.53;;;4.30;;
13386;SDS011;6763;48.524;9.044;2023-12-07T02:50:12;6.63;;;4.17;;
13386;SDS011;6763;48.524;9.044;2023-12-07T02:52:38;8.23;;;4.30;;
13386;SDS011;6763;48.524;9.044;2023-12-07T02:55:04;6.03;;;3.80;;
13386;SDS011;6763;48.524;9.044;2023-12-07T02:57:30;7.27;;;3.70;;
13386;SDS011;6763;48.524;9.044;2023-12-07T02:59:56;5.47;;;3.83;;
13386;SDS011;6763;48.524;9.044;2023-12-07T03:02:21;7.83;;;4.27;;
13386;SDS011;6763;48.524;9.044;2023-12-07T03:04:46;7.53;;;3.93;;
13386;SDS011;6763;48.524;9.044;2023-12-07T03:07:12;9.67;;;4.63;;
13386;SDS011;6763;48.524;9.044;2023-12-07T03:09:37;5.50;;;3.27;;
13386;SDS011;6763;48.524;9.044;2023-12-07T03:12:02;5.43;;;3.67;;
13386;SDS011;6763;48.524;9.044;2023-12-07T03:14:28;5.27;;;3.73;;
13386;SDS011;6763;48.524;9.044;2023-12-07T03:16:53;7.13;;;4.20;;
13386;SDS011;6763;48.524;9.044;2023-12-07T03:19:18;4.67;;;3.20;;
13386;SDS011;6763;48.524;9.044;2023-12-07T03:21:44;6.07;;;4.03;;
13386;SDS011;6763;48.524;9.044;2023-12-07T03:24:09;7.87;;;4.20;;
13386;SDS011;6763;48.524;9.044;2023-12-07T03:26:35;7.30;;;4.60;;
13386;SDS011;6763;48.524;9.044;2023-12-07T03:29:01;7.27;;;4.17;;
13386;SDS011;6763;48.524;9.044;2023-12-07T03:31:27;5.57;;;3.63;;
13386;SDS011;6763;48.524;9.044;2023-12-07T03:33:53;4.83;;;2.97;;
13386;SDS011;6763;48.524;9.044;2023-12-07T03:36:19;5.80;;;3.47;;
13386;SDS011;6763;48.524;9.044;2023-12-07T03:38:45;16.53;;;3.70;;
13386;SDS011;6763;48.524;9.044;2023-12-07T03:41:10;6.57;;;3.87;;
13386;SDS011;6763;48.524;9.044;2023-12-07T03:43:35;5.67;;;3.40;;
13386;SDS011;6763;48.524;9.044;2023-12-07T03:46:04;7.53;;;3.63;;
13386;SDS011;6763;48.524;9.044;2023-12-07T03:48:30;6.90;;;3.37;;
13386;SDS011;6763;48.524;9.044;2023-12-07T03:50:55;4.77;;;3.40;;
13386;SDS011;6763;48.524;9.044;2023-12-07T03:53:20;5.53;;;3.53;;
13386;SDS011;6763;48.524;9.044;2023-12-07T03:55:46;4.57;;;3.03;;
13386;SDS011;6763;48.524;9.044;2023-12-07T03:58:11;9.37;;;4.50;;
13386;SDS011;6763;48.524;9.044;2023-12-07T04:00:38;6.80;;;3.63;;
13386;SDS011;6763;48.524;9.044;2023-12-07T04:03:03;7.07;;;4.37;;
13386;SDS011;6763;48.524;9.044;2023-12-07T04:05:28;5.90;;;3.13;;
13386;SDS011;6763;48.524;9.044;2023-12-07T04:07:54;6.97;;;3.90;;
13386;SDS011;6763;48.524;9.044;2023-12-07T04:10:19;6.23;;;4.03;;
13386;SDS011;6763;48.524;9.044;2023-12-07T04:12:44;4.33;;;3.77;;
13386;SDS011;6763;48.524;9.044;2023-12-07T04:15:10;5.07;;;3.67;;
13386;SDS011;6763;48.524;9.044;2023-12-07T04:17:35;5.67;;;3.17;;
13386;SDS011;6763;48.524;9.044;2023-12-07T04:20:00;5.60;;;3.00;;
13386;SDS011;6763;48.524;9.044;2023-12-07T04:22:26;6.07;;;3.97;;
13386;SDS011;6763;48.524;9.044;2023-12-07T04:24:51;5.77;;;3.40;;
13386;SDS011;6763;48.524;9.044;2023-12-07T04:27:16;7.57;;;4.00;;
13386;SDS011;6763;48.524;9.044;2023-12-07T04:29:42;4.80;;;2.83;;
13386;SDS011;6763;48.524;9.044;2023-12-07T04:32:07;5.70;;;3.70;;
13386;SDS011;6763;48.524;9.044;2023-12-07T04:34:33;4.70;;;3.07;;
13386;SDS011;6763;48.524;9.044;2023-12-07T04:36:58;5.13;;;3.30;;
13386;SDS011;6763;48.524;9.044;2023-12-07T04:39:24;7.40;;;3.70;;
13386;SDS011;6763;48.524;9.044;2023-12-07T04:41:49;6.47;;;3.90;;
13386;SDS011;6763;48.524;9.044;2023-12-07T04:44:16;7.23;;;3.87;;
13386;SDS011;6763;48.524;9.044;2023-12-07T04:46:41;4.27;;;3.33;;
13386;SDS011;6763;48.524;9.044;2023-12-07T04:49:07;6.10;;;3.67;;
13386;SDS011;6763;48.524;9.044;2023-12-07T04:51:32;11.40;;;4.30;;
13386;SDS011;6763;48.524;9.044;2023-12-07T04:53:58;6.87;;;3.67;;
13386;SDS011;6763;48.524;9.044;2023-12-07T04:56:23;5.63;;;4.00;;
13386;SDS011;6763;48.524;9.044;2023-12-07T04:58:48;4.97;;;3.23;;
13386;SDS011;6763;48.524;9.044;2023-12-07T05:01:14;6.50;;;3.77;;
13386;SDS011;6763;48.524;9.044;2023-12-07T05:03:39;3.30;;;2.53;;
13386;SDS011;6763;48.524;9.044;2023-12-07T05:06:04;5.73;;;3.97;;
13386;SDS011;6763;48.524;9.044;2023-12-07T05:08:30;5.13;;;2.83;;
13386;SDS011;6763;48.524;9.044;2023-12-07T05:10:56;4.10;;;3.30;;
13386;SDS011;6763;48.524;9.044;2023-12-07T05:13:22;6.77;;;3.80;;
13386;SDS011;6763;48.524;9.044;2023-12-07T05:15:48;5.00;;;2.80;;
13386;SDS011;6763;48.524;9.044;2023-12-07T05:18:13;11.07;;;4.00;;
13386;SDS011;6763;48.524;9.044;2023-12-07T05:20:38;5.93;;;3.00;;
13386;SDS011;6763;48.524;9.044;2023-12-07T05:23:04;8.43;;;4.20;;
13386;SDS011;6763;48.524;9.044;2023-12-07T05:25:30;5.50;;;3.33;;
13386;SDS011;6763;48.524;9.044;2023-12-07T05:27:55;5.37;;;3.30;;
13386;SDS011;6763;48.524;9.044;2023-12-07T05:30:20;5.00;;;3.70;;
13386;SDS011;6763;48.524;9.044;2023-12-07T05:32:46;7.90;;;3.57;;
13386;SDS011;6763;48.524;9.044;2023-12-07T05:35:11;5.40;;;3.20;;
13386;SDS011;6763;48.524;9.044;2023-12-07T05:37:36;6.03;;;3.27;;
13386;SDS011;6763;48.524;9.044;2023-12-07T05:40:02;7.07;;;4.03;;
13386;SDS011;6763;48.524;9.044;2023-12-07T05:42:27;8.17;;;4.60;;
13386;SDS011;6763;48.524;9.044;2023-12-07T05:44:52;6.23;;;4.17;;
13386;SDS011;6763;48.524;9.044;2023-12-07T05:47:18;4.70;;;3.47;;
13386;SDS011;6763;48.524;9.044;2023-12-07T05:49:43;7.03;;;3.60;;
13386;SDS011;6763;48.524;9.044;2023-12-07T05:52:08;7.63;;;4.17;;
13386;SDS011;6763;48.524;9.044;2023-12-07T05:54:33;6.30;;;4.20;;
13386;SDS011;6763;48.524;9.044;2023-12-07T05:56:59;5.47;;;3.70;;
13386;SDS011;6763;48.524;9.044;2023-12-07T05:59:24;7.63;;;3.53;;
13386;SDS011;6763;48.524;9.044;2023-12-07T06:01:53;5.63;;;3.40;;
13386;SDS011;6763;48.524;9.044;2023-12-07T06:04:18;6.90;;;4.30;;
13386;SDS011;6763;48.524;9.044;2023-12-07T06:06:44;8.50;;;4.23;;
13386;SDS011;6763;48.524;9.044;2023-12-07T06:09:10;4.87;;;2.93;;
13386;SDS011;6763;48.524;9.044;2023-12-07T06:11:35;8.00;;;4.17;;
13386;SDS011;6763;48.524;9.044;2023-12-07T06:14:01;9.27;;;4.40;;
13386;SDS011;6763;48.524;9.044;2023-12-07T06:16:26;11.00;;;4.47;;
13386;SDS011;6763;48.524;9.044;2023-12-07T06:18:51;6.20;;;4.30;;
13386;SDS011;6763;48.524;9.044;2023-12-07T06:21:17;6.97;;;4.23;;
13386;SDS011;6763;48.524;9.044;2023-12-07T06:23:42;7.50;;;4.67;;
13386;SDS011;6763;48.524;9.044;2023-12-07T06:26:07;10.63;;;4.57;;
13386;SDS011;6763;48.524;9.044;2023-12-07T06:28:33;11.63;;;4.97;;
13386;SDS011;6763;48.524;9.044;2023-12-07T06:31:04;17.00;;;4.47;;
13386;SDS011;6763;48.524;9.044;2023-12-07T06:33:31;9.13;;;4.40;;
13386;SDS011;6763;48.524;9.044;2023-12-07T06:35:56;12.57;;;4.57;;
13386;SDS011;6763;48.524;9.044;2023-12-07T06:38:21;8.83;;;4.70;;
13386;SDS011;6763;48.524;9.044;2023-12-07T06:40:47;11.00;;;4.60;;
13386;SDS011;6763;48.524;9.044;2023-12-07T06:43:12;7.50;;;4.37;;
13386;SDS011;6763;48.524;9.044;2023-12-07T06:45:37;17.20;;;4.80;;
13386;SDS011;6763;48.524;9.044;2023-12-07T06:48:03;14.20;;;4.97;;
13386;SDS011;6763;48.524;9.044;2023-12-07T06:50:28;8.87;;;4.70;;
13386;SDS011;6763;48.524;9.044;2023-12-07T06:52:53;8.27;;;4.00;;
13386;SDS011;6763;48.524;9.044;2023-12-07T06:55:19;8.97;;;4.23;;
13386;SDS011;6763;48.524;9.044;2023-12-07T06:57:44;6.67;;;3.40;;
13386;SDS011;6763;48.524;9.044;2023-12-07T07:00:10;7.93;;;4.70;;
13386;SDS011;6763;48.524;9.044;2023-12-07T07:02:37;7.87;;;4.90;;
13386;SDS011;6763;48.524;9.044;2023-12-07T07:05:04;7.90;;;4.43;;
13386;SDS011;6763;48.524;9.044;2023-12-07T07:07:30;8.17;;;4.50;;
13386;SDS011;6763;48.524;9.044;2023-12-07T07:09:56;7.13;;;4.50;;
13386;SDS011;6763;48.524;9.044;2023-12-07T07:12:22;10.37;;;3.43;;
13386;SDS011;6763;48.524;9.044;2023-12-07T07:14:47;8.70;;;3.47;;
13386;SDS011;6763;48.524;9.044;2023-12-07T07:17:13;6.53;;;3.97;;
13386;SDS011;6763;48.524;9.044;2023-12-07T07:19:38;8.67;;;4.37;;
13386;SDS011;6763;48.524;9.044;2023-12-07T07:22:04;7.23;;;3.83;;
13386;SDS011;6763;48.524;9.044;2023-12-07T07:24:29;14.67;;;4.07;;
13386;SDS011;6763;48.524;9.044;2023-12-07T07:26:55;9.50;;;4.03;;
13386;SDS011;6763;48.524;9.044;2023-12-07T07:29:20;6.83;;;4.40;;
13386;SDS011;6763;48.524;9.044;2023-12-07T07:31:45;5.70;;;3.83;;
13386;SDS011;6763;48.524;9.044;2023-12-07T07:34:10;9.40;;;3.93;;
13386;SDS011;6763;48.524;9.044;2023-12-07T07:36:36;10.60;;;3.40;;
13386;SDS011;6763;48.524;9.044;2023-12-07T07:39:01;7.70;;;3.17;;
13386;SDS011;6763;48.524;9.044;2023-12-07T07:41:26;7.73;;;3.60;;
13386;SDS011;6763;48.524;9.044;2023-12-07T07:43:52;3.67;;;3.23;;
13386;SDS011;6763;48.524;9.044;2023-12-07T07:46:17;6.97;;;4.50;;
13386;SDS011;6763;48.524;9.044;2023-12-07T07:48:42;4.47;;;3.57;;
13386;SDS011;6763;48.524;9.044;2023-12-07T07:51:08;7.50;;;4.27;;
13386;SDS011;6763;48.524;9.044;2023-12-07T07:53:33;6.57;;;3.93;;
13386;SDS011;6763;48.524;9.044;2023-12-07T07:55:58;8.00;;;4.17;;
13386;SDS011;6763;48.524;9.044;2023-12-07T07:58:23;10.77;;;4.50;;
13386;SDS011;6763;48.524;9.044;2023-12-07T08:00:49;4.80;;;3.07;;
13386;SDS011;6763;48.524;9.044;2023-12-07T08:03:14;9.00;;;3.60;;
13386;SDS011;6763;48.524;9.044;2023-12-07T08:05:40;5.80;;;3.67;;
13386;SDS011;6763;48.524;9.044;2023-12-07T08:08:05;12.83;;;4.03;;
13386;SDS011;6763;48.524;9.044;2023-12-07T08:10:32;8.77;;;4.13;;
13386;SDS011;6763;48.524;9.044;2023-12-07T08:12:57;8.13;;;3.90;;
13386;SDS011;6763;48.524;9.044;2023-12-07T08:15:22;9.90;;;4.07;;
13386;SDS011;6763;48.524;9.044;2023-12-07T08:17:47;7.97;;;4.47;;
13386;SDS011;6763;48.524;9.044;2023-12-07T08:20:13;6.13;;;3.93;;
13386;SDS011;6763;48.524;9.044;2023-12-07T08:22:39;8.13;;;3.60;;
13386;SDS011;6763;48.524;9.044;2023-12-07T08:25:09;16.57;;;4.50;;
13386;SDS011;6763;48.524;9.044;2023-12-07T08:27:38;11.53;;;5.17;;
13386;SDS011;6763;48.524;9.044;2023-12-07T08:30:04;5.50;;;4.30;;
13386;SDS011;6763;48.524;9.044;2023-12-07T08:32:30;10.07;;;5.03;;
13386;SDS011;6763;48.524;9.044;2023-12-07T08:34:56;9.77;;;4.10;;
13386;SDS011;6763;48.524;9.044;2023-12-07T08:37:21;9.03;;;4.50;;
13386;SDS011;6763;48.524;9.044;2023-12-07T08:39:46;10.57;;;3.37;;
13386;SDS011;6763;48.524;9.044;2023-12-07T08:42:12;8.60;;;4.63;;
13386;SDS011;6763;48.524;9.044;2023-12-07T08:44:37;12.97;;;4.27;;
13386;SDS011;6763;48.524;9.044;2023-12-07T08:47:03;11.17;;;3.90;;
13386;SDS011;6763;48.524;9.044;2023-12-07T08:49:28;9.17;;;4.33;;
13386;SDS011;6763;48.524;9.044;2023-12-07T08:51:54;13.53;;;4.07;;
13386;SDS011;6763;48.524;9.044;2023-12-07T08:54:19;7.83;;;4.03;;
13386;SDS011;6763;48.524;9.044;2023-12-07T08:56:44;9.47;;;4.80;;
13386;SDS011;6763;48.524;9.044;2023-12-07T08:59:10;13.07;;;4.07;;
13386;SDS011;6763;48.524;9.044;2023-12-07T09:01:35;7.57;;;4.27;;
13386;SDS011;6763;48.524;9.044;2023-12-07T09:04:01;13.50;;;5.20;;
13386;SDS011;6763;48.524;9.044;2023-12-07T09:06:27;7.40;;;4.67;;
13386;SDS011;6763;48.524;9.044;2023-12-07T09:08:52;7.13;;;4.10;;
13386;SDS011;6763;48.524;9.044;2023-12-07T09:11:18;21.63;;;4.27;;
13386;SDS011;6763;48.524;9.044;2023-12-07T09:13:43;5.83;;;3.33;;
13386;SDS011;6763;48.524;9.044;2023-12-07T09:16:08;9.80;;;4.17;;
13386;SDS011;6763;48.524;9.044;2023-12-07T09:18:34;10.37;;;4.43;;
13386;SDS011;6763;48.524;9.044;2023-12-07T09:21:00;11.73;;;3.57;;
13386;SDS011;6763;48.524;9.044;2023-12-07T09:23:26;7.40;;;3.90;;
13386;SDS011;6763;48.524;9.044;2023-12-07T09:25:51;12.53;;;4.47;;
13386;SDS011;6763;48.524;9.044;2023-12-07T09:28:17;10.77;;;4.33;;
13386;SDS011;6763;48.524;9.044;2023-12-07T09:30:42;7.73;;;4.00;;
13386;SDS011;6763;48.524;9.044;2023-12-07T09:33:07;7.03;;;4.43;;
13386;SDS011;6763;48.524;9.044;2023-12-07T09:35:33;6.83;;;4.17;;
13386;SDS011;6763;48.524;9.044;2023-12-07T09:37:59;6.93;;;4.17;;
13386;SDS011;6763;48.524;9.044;2023-12-07T09:40:24;5.57;;;4.33;;
13386;SDS011;6763;48.524;9.044;2023-12-07T09:42:50;9.00;;;4.43;;
13386;SDS011;6763;48.524;9.044;2023-12-07T09:45:16;7.20;;;4.43;;
13386;SDS011;6763;48.524;9.044;2023-12-07T09:47:46;6.93;;;4.33;;
13386;SDS011;6763;48.524;9.044;2023-12-07T09:50:15;7.33;;;4.10;;
13386;SDS011;6763;48.524;9.044;2023-12-07T09:52:42;7.90;;;4.67;;
13386;SDS011;6763;48.524;9.044;2023-12-07T09:55:08;9.63;;;3.90;;
13386;SDS011;6763;48.524;9.044;2023-12-07T09:57:34;8.17;;;4.30;;
13386;SDS011;6763;48.524;9.044;2023-12-07T10:00:01;10.43;;;4.67;;
13386;SDS011;6763;48.524;9.044;2023-12-07T10:02:27;7.90;;;4.23;;
13386;SDS011;6763;48.524;9.044;2023-12-07T10:07:34;11.60;;;5.10;;
13386;SDS011;6763;48.524;9.044;2023-12-07T10:10:02;9.90;;;4.57;;
13386;SDS011;6763;48.524;9.044;2023-12-07T10:12:28;8.37;;;4.40;;
13386;SDS011;6763;48.524;9.044;2023-12-07T10:14:54;7.03;;;4.00;;
13386;SDS011;6763;48.524;9.044;2023-12-07T10:17:19;7.17;;;3.70;;
13386;SDS011;6763;48.524;9.044;2023-12-07T10:19:44;6.67;;;4.40;;
13386;SDS011;6763;48.524;9.044;2023-12-07T10:22:13;6.67;;;4.50;;
13386;SDS011;6763;48.524;9.044;2023-12-07T10:24:40;7.43;;;3.73;;
13386;SDS011;6763;48.524;9.044;2023-12-07T10:27:06;6.63;;;3.67;;
13386;SDS011;6763;48.524;9.044;2023-12-07T10:29:35;4.97;;;3.77;;
13386;SDS011;6763;48.524;9.044;2023-12-07T10:32:01;7.10;;;3.60;;
13386;SDS011;6763;48.524;9.044;2023-12-07T10:34:29;7.10;;;4.07;;
13386;SDS011;6763;48.524;9.044;2023-12-07T10:36:55;6.10;;;3.97;;
13386;SDS011;6763;48.524;9.044;2023-12-07T10:39:22;7.77;;;4.13;;
13386;SDS011;6763;48.524;9.044;2023-12-07T10:41:49;5.63;;;3.57;;
13386;SDS011;6763;48.524;9.044;2023-12-07T10:44:21;6.33;;;4.27;;
13386;SDS011;6763;48.524;9.044;2023-12-07T10:46:51;7.97;;;4.87;;
13386;SDS011;6763;48.524;9.044;2023-12-07T10:49:17;8.17;;;4.93;;
13386;SDS011;6763;48.524;9.044;2023-12-07T10:54:50;5.90;;;4.30;;
13386;SDS011;6763;48.524;9.044;2023-12-07T10:57:25;6.07;;;4.23;;
13386;SDS011;6763;48.524;9.044;2023-12-07T10:59:52;6.37;;;4.20;;
13386;SDS011;6763;48.524;9.044;2023-12-07T11:02:20;5.53;;;3.40;;
13386;SDS011;6763;48.524;9.044;2023-12-07T11:04:46;5.93;;;3.70;;
13386;SDS011;6763;48.524;9.044;2023-12-07T11:07:14;6.23;;;4.10;;
13386;SDS011;6763;48.524;9.044;2023-12-07T11:09:45;5.80;;;4.00;;
13386;SDS011;6763;48.524;9.044;2023-12-07T11:12:25;4.97;;;3.67;;
13386;SDS011;6763;48.524;9.044;2023-12-07T11:14:55;5.07;;;3.33;;
13386;SDS011;6763;48.524;9.044;2023-12-07T11:17:21;4.97;;;3.20;;
13386;SDS011;6763;48.524;9.044;2023-12-07T11:19:47;4.53;;;3.33;;
13386;SDS011;6763;48.524;9.044;2023-12-07T11:22:12;3.97;;;3.17;;
13386;SDS011;6763;48.524;9.044;2023-12-07T11:24:51;4.43;;;3.23;;
13386;SDS011;6763;48.524;9.044;2023-12-07T11:27:18;7.17;;;3.60;;
13386;SDS011;6763;48.524;9.044;2023-12-07T11:29:43;3.80;;;2.87;;
13386;SDS011;6763;48.524;9.044;2023-12-07T11:32:11;3.37;;;2.80;;
13386;SDS011;6763;48.524;9.044;2023-12-07T11:34:40;3.40;;;2.80;;
13386;SDS011;6763;48.524;9.044;2023-12-07T11:37:07;4.33;;;2.83;;
13386;SDS011;6763;48.524;9.044;2023-12-07T11:39:37;4.03;;;3.20;;
13386;SDS011;6763;48.524;9.044;2023-12-07T11:42:07;4.27;;;2.90;;
13386;SDS011;6763;48.524;9.044;2023-12-07T11:44:39;4.30;;;3.23;;
13386;SDS011;6763;48.524;9.044;2023-12-07T11:47:06;5.13;;;3.40;;
13386;SDS011;6763;48.524;9.044;2023-12-07T11:49:33;4.03;;;3.10;;
13386;SDS011;6763;48.524;9.044;2023-12-07T11:51:59;4.10;;;3.30;;
13386;SDS011;6763;48.524;9.044;2023-12-07T11:54:27;4.00;;;2.97;;
13386;SDS011;6763;48.524;9.044;2023-12-07T11:56:54;3.53;;;2.83;;
13386;SDS011;6763;48.524;9.044;2023-12-07T11:59:19;5.77;;;3.07;;
13386;SDS011;6763;48.524;9.044;2023-12-07T12:01:48;6.77;;;3.50;;
13386;SDS011;6763;48.524;9.044;2023-12-07T12:04:17;6.60;;;3.67;;
13386;SDS011;6763;48.524;9.044;2023-12-07T12:06:43;4.50;;;3.20;;
13386;SDS011;6763;48.524;9.044;2023-12-07T12:09:11;3.57;;;3.00;;
13386;SDS011;6763;48.524;9.044;2023-12-07T12:11:37;4.07;;;3.20;;
13386;SDS011;6763;48.524;9.044;2023-12-07T12:14:08;5.37;;;3.33;;
13386;SDS011;6763;48.524;9.044;2023-12-07T12:16:34;3.30;;;2.80;;
13386;SDS011;6763;48.524;9.044;2023-12-07T12:18:59;5.23;;;3.43;;
13386;SDS011;6763;48.524;9.044;2023-12-07T12:21:24;5.87;;;3.57;;
13386;SDS011;6763;48.524;9.044;2023-12-07T12:23:50;4.23;;;2.70;;
13386;SDS011;6763;48.524;9.044;2023-12-07T12:26:16;4.33;;;3.30;;
13386;SDS011;6763;48.524;9.044;2023-12-07T12:28:42;4.23;;;3.20;;
13386;SDS011;6763;48.524;9.044;2023-12-07T12:31:09;4.80;;;3.10;;
13386;SDS011;6763;48.524;9.044;2023-12-07T12:33:36;4.80;;;3.20;;
13386;SDS011;6763;48.524;9.044;2023-12-07T12:36:03;5.77;;;3.53;;
13386;SDS011;6763;48.524;9.044;2023-12-07T12:38:30;5.97;;;3.33;;
13386;SDS011;6763;48.524;9.044;2023-12-07T12:40:55;5.10;;;3.20;;
13386;SDS011;6763;48.524;9.044;2023-12-07T12:43:21;3.77;;;2.90;;
13386;SDS011;6763;48.524;9.044;2023-12-07T12:45:49;4.60;;;2.87;;
13386;SDS011;6763;48.524;9.044;2023-12-07T12:48:15;6.43;;;3.43;;
13386;SDS011;6763;48.524;9.044;2023-12-07T12:50:41;7.13;;;3.40;;
13386;SDS011;6763;48.524;9.044;2023-12-07T12:53:10;3.87;;;3.07;;
13386;SDS011;6763;48.524;9.044;2023-12-07T12:55:37;5.00;;;3.33;;
13386;SDS011;6763;48.524;9.044;2023-12-07T12:58:03;3.37;;;2.73;;
13386;SDS011;6763;48.524;9.044;2023-12-07T13:00:32;3.73;;;2.83;;
13386;SDS011;6763;48.524;9.044;2023-12-07T13:02:58;4.73;;;2.60;;
13386;SDS011;6763;48.524;9.044;2023-12-07T13:05:24;4.43;;;2.60;;
13386;SDS011;6763;48.524;9.044;2023-12-07T13:07:50;4.37;;;2.57;;
13386;SDS011;6763;48.524;9.044;2023-12-07T13:10:16;3.17;;;2.57;;
13386;SDS011;6763;48.524;9.044;2023-12-07T13:12:41;3.93;;;2.87;;
13386;SDS011;6763;48.524;9.044;2023-12-07T13:15:07;4.00;;;2.30;;
13386;SDS011;6763;48.524;9.044;2023-12-07T13:17:34;4.33;;;2.87;;
13386;SDS011;6763;48.524;9.044;2023-12-07T13:19:59;3.10;;;2.40;;
13386;SDS011;6763;48.524;9.044;2023-12-07T13:22:24;3.03;;;2.10;;
13386;SDS011;6763;48.524;9.044;2023-12-07T13:24:50;2.17;;;1.57;;
13386;SDS011;6763;48.524;9.044;2023-12-07T13:27:15;4.23;;;2.10;;
13386;SDS011;6763;48.524;9.044;2023-12-07T13:29:41;3.23;;;2.00;;
13386;SDS011;6763;48.524;9.044;2023-12-07T13:32:06;3.20;;;2.03;;
13386;SDS011;6763;48.524;9.044;2023-12-07T13:34:31;2.87;;;1.60;;
13386;SDS011;6763;48.524;9.044;2023-12-07T13:36:57;3.00;;;1.87;;
13386;SDS011;6763;48.524;9.044;2023-12-07T13:39:22;2.47;;;1.70;;
13386;SDS011;6763;48.524;9.044;2023-12-07T13:41:48;3.00;;;1.60;;
13386;SDS011;6763;48.524;9.044;2023-12-07T13:44:14;1.73;;;1.63;;
13386;SDS011;6763;48.524;9.044;2023-12-07T13:46:43;1.90;;;1.47;;
13386;SDS011;6763;48.524;9.044;2023-12-07T13:49:10;4.07;;;1.30;;
13386;SDS011;6763;48.524;9.044;2023-12-07T13:51:37;2.73;;;1.67;;
13386;SDS011;6763;48.524;9.044;2023-12-07T13:54:03;2.17;;;1.50;;
13386;SDS011;6763;48.524;9.044;2023-12-07T13:56:28;2.03;;;1.70;;
13386;SDS011;6763;48.524;9.044;2023-12-07T13:58:54;4.20;;;1.63;;
13386;SDS011;6763;48.524;9.044;2023-12-07T14:01:19;1.87;;;1.37;;
13386;SDS011;6763;48.524;9.044;2023-12-07T14:03:44;0.93;;;0.80;;
13386;SDS011;6763;48.524;9.044;2023-12-07T14:06:10;1.00;;;0.90;;
13386;SDS011;6763;48.524;9.044;2023-12-07T14:08:37;0.90;;;0.90;;
13386;SDS011;6763;48.524;9.044;2023-12-07T14:11:02;1.37;;;1.03;;
13386;SDS011;6763;48.524;9.044;2023-12-07T14:13:28;1.53;;;1.00;;
13386;SDS011;6763;48.524;9.044;2023-12-07T14:15:53;2.07;;;0.80;;
13386;SDS011;6763;48.524;9.044;2023-12-07T14:18:18;1.13;;;1.00;;
13386;SDS011;6763;48.524;9.044;2023-12-07T14:20:44;1.20;;;0.93;;
13386;SDS011;6763;48.524;9.044;2023-12-07T14:23:09;1.03;;;0.80;;
13386;SDS011;6763;48.524;9.044;2023-12-07T14:25:34;1.70;;;0.97;;
13386;SDS011;6763;48.524;9.044;2023-12-07T14:28:00;1.00;;;0.90;;
13386;SDS011;6763;48.524;9.044;2023-12-07T14:30:25;2.60;;;1.20;;
13386;SDS011;6763;48.524;9.044;2023-12-07T14:32:50;1.70;;;0.97;;
13386;SDS011;6763;48.524;9.044;2023-12-07T14:35:19;2.00;;;1.10;;
13386;SDS011;6763;48.524;9.044;2023-12-07T14:37:44;2.33;;;0.87;;
13386;SDS011;6763;48.524;9.044;2023-12-07T14:40:10;1.10;;;0.80;;
13386;SDS011;6763;48.524;9.044;2023-12-07T14:42:36;1.00;;;0.90;;
13386;SDS011;6763;48.524;9.044;2023-12-07T14:45:02;1.23;;;1.10;;
13386;SDS011;6763;48.524;9.044;2023-12-07T14:47:29;2.03;;;1.30;;
13386;SDS011;6763;48.524;9.044;2023-12-07T14:49:54;1.63;;;1.17;;
13386;SDS011;6763;48.524;9.044;2023-12-07T14:52:20;1.83;;;1.10;;
13386;SDS011;6763;48.524;9.044;2023-12-07T14:54:45;1.47;;;1.20;;
13386;SDS011;6763;48.524;9.044;2023-12-07T14:57:10;1.83;;;1.20;;
13386;SDS011;6763;48.524;9.044;2023-12-07T14:59:36;5.53;;;1.90;;
13386;SDS011;6763;48.524;9.044;2023-12-07T15:02:01;4.67;;;1.50;;
13386;SDS011;6763;48.524;9.044;2023-12-07T15:04:28;3.17;;;1.53;;